Elk Creek, MO (65464)

7:10 PM CDT on April 21, 2015 (GMT -0500)
Country | | Change Station
CLOSE
Current Station
Personal Weather Station
Location: Elk Creek, MO
Elevation: 1332 ft
Nearby Weather Stations
Active Advisory: Special Statement

Elev 1332 ft 37.15 °N, 91.91 °W | Updated 2 minutes ago

Rain
Rain
55.9 °F
Feels Like 55.9 °F
N
0.0
Wind Variable Wind from West
Gusts 15.0 mph

Today
High -- | Low -- °F
--% Chance of Precip.
Yesterday
High -- | Low -- °F
Precip. -- in
6:25 AM 7:48 PM
Waxing Crescent, 13% visible
Pressure 29.80 in
Visibility 10.0 miles
Clouds Few 2900 ft
Scattered Clouds 9000 ft
Mostly Cloudy 12000 ft
Dew Point 49 °F
Humidity 77%
Rainfall 0.03 in
Snow Depth Not available.
UV 0 out of 12
Pollen 10.40 out of 12
Air Quality Not available.
Flu Activity Local Activity
METAR KUNO 212353Z AUTO 22007KT 10SM -RA FEW029 SCT090 BKN120 18/07 A2980 RMK AO2 LTG DSNT NW-NE RAB47 SLP090 P0000 60000 T01780067 10217 20178 56012

More Conditions Fewer Conditions

Pressure 29.80 in
Visibility 10.0 miles
Clouds Few 2900 ft
Scattered Clouds 9000 ft
Mostly Cloudy 12000 ft
Dew Point 49 °F
Humidity 77%
Rainfall 0.03 in
Snow Depth Not available.
UV 0 out of 12
Pollen 10.40 out of 12
Air Quality Not available.
Flu Activity Local Activity
METAR KUNO 212353Z AUTO 22007KT 10SM -RA FEW029 SCT090 BKN120 18/07 A2980 RMK AO2 LTG DSNT NW-NE RAB47 SLP090 P0000 60000 T01780067 10217 20178 56012

More Conditions Fewer Conditions

10-Day Weather Forecast

Almanac

Astronomy

Apr. 21, 2015 Rise Set
Actual Time
Civil Twilight
Nautical Twilight
Astronomical Twilight
Moon
Length of Visible Light
Length of Day
Tomorrow will be .
, % of the Moon is Illuminated

Today's Extremes

State Highs State Lows

Community

WunderPhotos

Upload Photos

1,815,586 photos uploaded!

WunderBlogs® & News

Nearby

Air Quality

  Air Quality AQ Index Pollutant
Not available.

Snow Depth

Station Depth Elevation

Earthquake Activity

City Distance Mag. Time & Date
Minimum magnitude displayed is 2.5.

Coastal Water Temperatures

Place Temperature

Stations

Nearby Weather Stations

Station Location Temp. Windchill Dew Point Humidity Wind Precip. Elev Updated Type
                   
Special Statement
Statement as of 6:46 PM CDT on April 21, 2015

... Significant weather advisory for northern Howell and southern
Texas counties until 715 PM CDT...

At 643 PM CDT... National Weather Service Doppler radar was tracking a
strong thunderstorm 4 miles west of Cabool... or 6 miles east of
Mountain Grove... moving east at 40 mph. Nickel size hail... and winds
around 50 mph are expected with this storm.

Locations impacted include Arroll... Cabool... Clear Springs... Mountain
View and Pine Crest.

Lat... Lon 3703 9209 3706 9209 3706 9222 3718 9224
      3716 9165 3693 9166
time... Mot... loc 2346z 288deg 35kt 3710 9213


Griffin